createdAt,value
2019-01-10T00:04:20.293Z,100095.70
2019-01-10T00:09:24.339Z,100102.25
2019-01-10T00:14:28.531Z,100103.50
2019-01-10T00:19:32.614Z,100103.50
2019-01-10T00:24:36.815Z,100116.28
2019-01-10T00:29:40.922Z,100124.97
2019-01-10T00:34:45.040Z,100124.17
2019-01-10T00:39:49.156Z,100132.51
2019-01-10T00:44:53.274Z,100137.09
2019-01-10T00:49:57.376Z,100137.09
2019-01-10T00:55:01.457Z,100144.81
2019-01-10T01:00:08.869Z,100154.16
2019-01-10T01:05:14.458Z,100167.86
2019-01-10T01:10:23.762Z,100170.59
2019-01-10T01:15:27.930Z,100187.67
2019-01-10T01:20:32.051Z,100197.33
2019-01-10T01:25:36.141Z,100199.03
2019-01-10T01:30:40.313Z,100208.27
2019-01-10T01:35:44.402Z,100217.19
2019-01-10T01:40:48.586Z,100221.04
2019-01-10T01:45:52.682Z,100224.03
2019-01-10T01:50:56.892Z,100229.29
2019-01-10T01:56:01.077Z,100242.77
2019-01-10T02:01:05.371Z,100254.75
2019-01-10T02:06:09.485Z,100263.83
2019-01-10T02:11:13.674Z,100271.16
2019-01-10T02:16:17.738Z,100263.23
2019-01-10T02:21:21.775Z,100282.20
2019-01-10T02:26:25.889Z,100282.20
2019-01-10T02:31:29.980Z,100288.17
2019-01-10T02:36:34.076Z,100301.95
2019-01-10T02:41:38.250Z,100313.98
2019-01-10T02:46:42.290Z,100314.84
2019-01-10T02:51:46.396Z,100321.98
2019-01-10T02:56:50.498Z,100321.17
2019-01-10T03:01:54.530Z,100322.77
2019-01-10T03:06:58.654Z,100330.25
2019-01-10T03:12:02.758Z,100329.16
2019-01-10T03:17:06.955Z,100340.89
2019-01-10T03:22:10.979Z,100340.25
2019-01-10T03:27:15.088Z,100347.49
2019-01-10T03:32:19.195Z,100352.79
2019-01-10T03:37:23.240Z,100351.93
2019-01-10T03:42:27.285Z,100344.88
2019-01-10T03:47:31.403Z,100344.11
2019-01-10T03:52:35.548Z,100352.33
2019-01-10T03:57:39.674Z,100351.36
2019-01-10T04:02:43.709Z,100362.95
2019-01-10T04:07:47.816Z,100357.30
2019-01-10T04:12:51.940Z,100357.30
2019-01-10T04:17:56.117Z,100381.58
2019-01-10T04:23:00.254Z,100391.50
2019-01-10T04:28:04.404Z,100398.42
2019-01-10T04:33:08.443Z,100398.42
2019-01-10T04:38:12.567Z,100399.48
2019-01-10T04:43:16.710Z,100406.55
2019-01-10T04:48:20.743Z,100408.86
2019-01-10T04:53:26.714Z,100414.61
2019-01-10T04:58:30.621Z,100420.59
2019-01-10T05:03:34.660Z,100424.20
2019-01-10T05:08:38.691Z,100427.48
2019-01-10T05:13:42.826Z,100430.86
2019-01-10T05:18:46.939Z,100433.75
2019-01-10T05:23:50.980Z,100451.83
2019-01-10T05:28:55.025Z,100446.84
2019-01-10T05:33:59.254Z,100446.84
2019-01-10T05:39:04.735Z,100460.76
2019-01-10T05:44:08.761Z,100463.91
2019-01-10T05:49:12.785Z,100464.92
2019-01-10T05:54:16.906Z,100464.92
2019-01-10T05:59:20.925Z,100479.36
2019-01-10T06:04:25.027Z,100479.36
2019-01-10T06:09:29.049Z,100483.60
2019-01-10T06:14:35.697Z,100501.77
2019-01-10T06:19:38.976Z,100513.58
2019-01-10T06:24:43.006Z,100526.16
2019-01-10T06:29:47.154Z,100526.92
2019-01-10T06:34:51.191Z,100538.75
2019-01-10T06:39:55.228Z,100542.02
2019-01-10T06:44:59.340Z,100542.02
2019-01-10T06:50:03.661Z,100562.28
2019-01-10T06:55:08.816Z,100566.72
2019-01-10T07:00:21.126Z,100566.72
2019-01-10T07:05:25.299Z,100581.39
2019-01-10T07:10:30.626Z,100593.70
2019-01-10T07:15:34.738Z,100599.05
2019-01-10T07:20:40.317Z,100605.08
2019-01-10T07:25:44.442Z,100605.08
2019-01-10T07:30:48.546Z,100626.09
2019-01-10T07:35:57.813Z,100626.09
2019-01-10T07:41:01.843Z,100638.20
2019-01-10T07:46:07.038Z,100640.52
2019-01-10T07:51:11.244Z,100648.70
2019-01-10T07:56:15.442Z,100665.55
2019-01-10T08:01:19.467Z,100667.14
2019-01-10T08:06:23.598Z,100694.45
2019-01-10T08:11:27.704Z,100686.71
2019-01-10T08:16:31.807Z,100687.59
2019-01-10T08:21:36.032Z,100689.19
2019-01-10T08:26:40.069Z,100689.19
2019-01-10T08:31:44.249Z,100693.31
2019-01-10T08:36:48.370Z,100692.14
2019-01-10T08:41:52.400Z,100691.83
2019-01-10T08:46:56.499Z,100694.73
2019-01-10T08:52:00.674Z,100686.78
2019-01-10T08:57:07.477Z,100686.78
2019-01-10T09:02:11.555Z,100706.17
2019-01-10T09:07:15.902Z,100720.64
2019-01-10T09:12:20.107Z,100721.15
2019-01-10T09:17:24.233Z,100740.98
2019-01-10T09:22:28.256Z,100743.88
2019-01-10T09:27:32.295Z,100747.98
2019-01-10T09:32:36.412Z,100760.15
2019-01-10T09:37:40.689Z,100760.15
2019-01-10T09:42:45.126Z,100763.67
2019-01-10T09:47:49.733Z,100763.67
2019-01-10T09:52:54.524Z,100777.62
2019-01-10T09:57:58.659Z,100771.55
2019-01-10T10:03:02.705Z,100781.63
2019-01-10T10:08:07.012Z,100787.49
2019-01-10T10:13:11.137Z,100784.02
2019-01-10T10:18:15.318Z,100784.02
2019-01-10T10:23:26.735Z,100790.67
2019-01-10T10:28:25.282Z,100799.19
2019-01-10T10:33:29.337Z,100798.98
2019-01-10T10:38:33.392Z,100803.06
2019-01-10T10:43:37.542Z,100802.45
2019-01-10T10:48:41.738Z,100809.80
2019-01-10T10:53:45.946Z,100809.80
2019-01-10T10:58:50.081Z,100806.00
2019-01-10T11:03:54.573Z,100802.69
2019-01-10T11:08:58.759Z,100802.31
2019-01-10T11:14:02.879Z,100800.27
2019-01-10T11:19:07.084Z,100800.27
2019-01-10T11:24:11.289Z,100796.44
2019-01-10T11:29:15.386Z,100792.64
2019-01-10T11:34:19.531Z,100789.23
2019-01-10T11:39:23.719Z,100786.78
2019-01-10T11:44:27.788Z,100786.78
2019-01-10T11:49:31.947Z,100782.02
2019-01-10T11:54:36.071Z,100782.40
2019-01-10T11:59:40.355Z,100781.52
2019-01-10T12:04:44.563Z,100781.52
2019-01-10T12:09:48.629Z,100781.53
2019-01-10T12:14:52.666Z,100781.53
2019-01-10T12:19:56.780Z,100776.61
2019-01-10T12:25:00.837Z,100781.19
2019-01-10T12:30:07.117Z,100788.75
2019-01-10T12:35:11.317Z,100791.80
2019-01-10T12:40:15.577Z,100786.08
2019-01-10T12:45:20.608Z,100785.56
2019-01-10T12:50:30.051Z,100779.71
2019-01-10T12:55:34.243Z,100779.71
2019-01-10T13:00:40.520Z,100802.47
2019-01-10T13:05:44.458Z,100802.47
2019-01-10T13:10:48.596Z,100816.44
2019-01-10T13:15:52.710Z,100804.23
2019-01-10T13:20:56.903Z,100804.28
2019-01-10T13:26:00.934Z,100806.92
2019-01-10T13:31:05.089Z,100804.45
2019-01-10T13:36:09.206Z,100807.67
2019-01-10T13:41:13.325Z,100816.11
2019-01-10T13:46:17.562Z,100816.73
2019-01-10T13:51:21.678Z,100812.84
2019-01-10T13:56:25.783Z,100815.18
2019-01-10T14:01:29.876Z,100820.63
2019-01-10T14:06:33.986Z,100820.97
2019-01-10T14:11:38.113Z,100820.23
2019-01-10T14:16:42.485Z,100820.23
2019-01-10T14:21:47.008Z,100817.88
2019-01-10T14:26:51.388Z,100819.73
2019-01-10T14:31:55.918Z,100823.31
2019-01-10T14:36:59.952Z,100827.17
2019-01-10T14:42:04.264Z,100827.17
2019-01-10T14:47:08.498Z,100835.12
2019-01-10T14:52:12.899Z,100837.86
2019-01-10T14:57:17.207Z,100837.80
2019-01-10T15:02:22.086Z,100851.25
2019-01-10T15:07:26.299Z,100851.95
2019-01-10T15:12:30.341Z,100852.23
2019-01-10T15:17:34.549Z,100852.18
2019-01-10T15:22:38.735Z,100852.18
2019-01-10T15:27:42.851Z,100849.06
2019-01-10T15:32:47.050Z,100871.04
2019-01-10T15:37:51.072Z,100871.25
2019-01-10T15:42:55.301Z,100872.11
2019-01-10T15:47:59.494Z,100868.93
2019-01-10T15:53:03.699Z,100868.93
2019-01-10T15:58:07.864Z,100872.17
2019-01-10T16:03:12.039Z,100877.30
2019-01-10T16:08:16.096Z,100878.69
2019-01-10T16:13:20.261Z,100877.40
2019-01-10T16:18:24.331Z,100880.85
2019-01-10T16:23:28.520Z,100880.85
2019-01-10T16:28:32.573Z,100892.22
2019-01-10T16:33:36.613Z,100898.34
2019-01-10T16:38:40.747Z,100895.92
2019-01-10T16:43:44.902Z,100897.92
2019-01-10T16:48:48.952Z,100899.27
2019-01-10T16:53:53.064Z,100899.87
2019-01-10T16:58:57.294Z,100901.86
2019-01-10T17:04:01.499Z,100898.44
2019-01-10T17:09:09.049Z,100906.81
2019-01-10T17:14:13.081Z,100915.00
2019-01-10T17:19:17.204Z,100914.95
2019-01-10T17:24:21.398Z,100910.04
2019-01-10T17:29:25.439Z,100913.98
2019-01-10T17:34:29.728Z,100912.82
2019-01-10T17:39:33.850Z,100917.41
2019-01-10T17:44:38.323Z,100917.41
2019-01-10T17:49:42.592Z,100928.37
2019-01-10T17:54:46.636Z,100928.37
2019-01-10T17:59:50.878Z,100927.50
2019-01-10T18:04:54.941Z,100925.26
2019-01-10T18:09:59.146Z,100925.26
2019-01-10T18:15:03.457Z,100923.12
2019-01-10T18:20:11.820Z,100926.02
2019-01-10T18:25:16.038Z,100929.41
2019-01-10T18:30:21.734Z,100936.91
2019-01-10T18:35:26.728Z,100936.91
2019-01-10T18:40:31.164Z,100922.88
2019-01-10T18:45:35.958Z,100922.88
2019-01-10T18:50:39.997Z,100946.16
2019-01-10T18:55:44.135Z,100950.36
2019-01-10T19:00:48.350Z,100949.90
2019-01-10T19:05:52.757Z,100947.03
2019-01-10T19:10:56.782Z,100947.61
2019-01-10T19:16:00.817Z,100947.61
2019-01-10T19:21:04.973Z,100950.42
2019-01-10T19:26:09.101Z,100950.42
2019-01-10T19:31:13.150Z,100958.53
2019-01-10T19:36:17.229Z,100958.17
2019-01-10T19:41:21.377Z,100955.23
2019-01-10T19:46:25.511Z,100953.33
2019-01-10T19:51:29.540Z,100960.23
2019-01-10T19:56:33.688Z,100957.23
2019-01-10T20:01:38.622Z,100957.23
2019-01-10T20:06:42.766Z,100953.70
2019-01-10T20:11:47.035Z,100955.22
2019-01-10T20:16:51.153Z,100951.48
2019-01-10T20:21:55.199Z,100966.05
2019-01-10T20:26:59.361Z,100972.83
2019-01-10T20:32:03.554Z,100973.72
2019-01-10T20:37:07.775Z,100969.67
2019-01-10T20:42:11.957Z,100958.88
2019-01-10T20:47:15.992Z,100963.70
2019-01-10T20:52:20.041Z,100957.68
2019-01-10T20:57:24.134Z,100957.68
2019-01-10T21:02:29.624Z,100954.74
2019-01-10T21:07:33.760Z,100956.67
2019-01-10T21:12:38.002Z,100959.55
2019-01-10T21:17:42.267Z,100960.61
2019-01-10T21:22:46.462Z,100960.61
2019-01-10T21:27:50.704Z,100960.03
2019-01-10T21:32:56.178Z,100958.03
2019-01-10T21:38:00.369Z,100955.78
2019-01-10T21:43:04.940Z,100955.78
2019-01-10T21:48:09.076Z,100951.59
2019-01-10T21:53:13.638Z,100955.19
2019-01-10T21:58:17.779Z,100954.84
2019-01-10T22:03:21.969Z,100948.75
2019-01-10T22:08:25.994Z,100953.78
2019-01-10T22:13:30.028Z,100953.78
2019-01-10T22:18:34.231Z,100955.39
2019-01-10T22:23:39.472Z,100960.48
2019-01-10T22:28:43.670Z,100951.98
2019-01-10T22:33:47.732Z,100959.79
2019-01-10T22:38:51.861Z,100955.92
2019-01-10T22:43:55.911Z,100948.73
2019-01-10T22:49:00.074Z,100948.57
2019-01-10T22:54:04.193Z,100955.52
2019-01-10T22:59:08.429Z,100953.95
2019-01-10T23:04:14.962Z,100945.30
2019-01-10T23:09:20.677Z,100952.24
2019-01-10T23:14:24.826Z,100943.16
2019-01-10T23:19:28.967Z,100937.77
2019-01-10T23:24:33.078Z,100934.70
2019-01-10T23:29:37.373Z,100932.97
2019-01-10T23:34:48.287Z,100926.32
2019-01-10T23:39:52.677Z,100926.32
2019-01-10T23:44:56.781Z,100919.09
2019-01-10T23:50:01.145Z,100918.33
2019-01-10T23:55:06.538Z,100918.33
